Time;durP1;ratioP1;P1;durP2;ratioP2;P2;SDS_P1;SDS_P2;PMS_P1;PMS_P2;Temp;Humidity;BMP_temperature;BMP_pressure;BME280_temperature;BME280_humidity;BME280_pressure;Samples;Min_cycle;Max_cycle;Signal;HPM_P1;HPM_P2
2022/12/25 00:00:51;;;;;;;28.35;12.18;;;;;;;;;;6098187;19;20480;-71
2022/12/25 00:02:56;;;;;;;27.25;11.13;;;;;;;;;;6102040;19;20046;-71
2022/12/25 00:05:01;;;;;;;26.10;10.35;;;;;;;;;;6112452;19;20042;-70
2022/12/25 00:07:06;;;;;;;24.77;10.52;;;;;;;;;;6111361;19;20452;-70
2022/12/25 00:09:13;;;;;;;30.48;10.75;;;;;;;;;;6113335;19;20042;-71
2022/12/25 00:11:20;;;;;;;25.00;10.70;;;;;;;;;;6113909;19;20873;-71
2022/12/25 00:13:24;;;;;;;28.73;10.48;;;;;;;;;;6113058;19;20578;-71
2022/12/25 00:15:29;;;;;;;30.85;10.68;;;;;;;;;;6112552;19;20027;-71
2022/12/25 00:17:34;;;;;;;29.90;13.30;;;;;;;;;;6114343;19;20009;-72
2022/12/25 00:19:38;;;;;;;28.48;11.95;;;;;;;;;;6116149;19;20699;-72
2022/12/25 00:21:43;;;;;;;32.08;13.73;;;;;;;;;;6112040;19;20510;-71
2022/12/25 00:23:48;;;;;;;31.77;11.00;;;;;;;;;;6112511;19;20019;-71
2022/12/25 00:25:56;;;;;;;34.83;16.45;;;;;;;;;;6113409;19;20015;-71
2022/12/25 00:28:00;;;;;;;35.75;13.63;;;;;;;;;;6117296;19;20018;-72
2022/12/25 00:30:06;;;;;;;31.08;12.60;;;;;;;;;;6118714;19;20006;-71
2022/12/25 00:32:11;;;;;;;27.48;11.93;;;;;;;;;;6117632;19;20557;-71
2022/12/25 00:34:16;;;;;;;24.25;11.98;;;;;;;;;;6116834;19;20014;-72
2022/12/25 00:36:23;;;;;;;26.00;10.82;;;;;;;;;;6117541;19;20003;-71
2022/12/25 00:38:28;;;;;;;25.38;11.30;;;;;;;;;;6117502;19;20018;-71
2022/12/25 00:40:33;;;;;;;24.98;10.85;;;;;;;;;;6118357;19;20010;-72
2022/12/25 00:42:41;;;;;;;27.67;12.20;;;;;;;;;;6116085;19;20010;-72
2022/12/25 00:44:45;;;;;;;25.70;11.10;;;;;;;;;;6116890;19;20093;-72
2022/12/25 00:46:50;;;;;;;29.33;11.57;;;;;;;;;;6116817;19;20006;-72
2022/12/25 00:48:55;;;;;;;24.30;10.80;;;;;;;;;;6114163;19;20550;-72
2022/12/25 00:51:01;;;;;;;27.73;11.70;;;;;;;;;;6113681;19;20613;-73
2022/12/25 00:53:06;;;;;;;23.45;11.52;;;;;;;;;;6112256;19;20668;-72
2022/12/25 00:55:11;;;;;;;27.20;12.77;;;;;;;;;;6112940;19;20006;-72
2022/12/25 00:57:16;;;;;;;27.98;11.95;;;;;;;;;;6113871;19;20102;-73
2022/12/25 00:59:24;;;;;;;30.27;12.05;;;;;;;;;;6115842;19;20093;-73
2022/12/25 01:01:28;;;;;;;26.20;12.00;;;;;;;;;;6113883;19;20007;-72
2022/12/25 01:03:34;;;;;;;26.70;11.35;;;;;;;;;;6115410;19;20013;-72
2022/12/25 01:05:39;;;;;;;25.20;11.80;;;;;;;;;;6117325;19;20019;-73
2022/12/25 01:07:43;;;;;;;24.75;11.93;;;;;;;;;;6117386;19;20106;-73
2022/12/25 01:12:06;;;;;;;28.95;12.18;;;;;;;;;;6113554;19;22482;-73
2022/12/25 01:14:10;;;;;;;26.88;12.20;;;;;;;;;;6116264;19;20034;-72
2022/12/25 01:16:20;;;;;;;28.92;12.60;;;;;;;;;;6111138;19;20006;-72
2022/12/25 01:18:26;;;;;;;30.58;11.38;;;;;;;;;;6110500;19;20023;-73
2022/12/25 01:20:31;;;;;;;24.45;11.88;;;;;;;;;;6110825;19;20050;-73
2022/12/25 01:22:33;;;;;;;24.52;11.13;;;;;;;;;;6108916;19;20014;-73
2022/12/25 01:24:37;;;;;;;30.58;11.55;;;;;;;;;;6108593;19;20674;-73
2022/12/25 01:26:42;;;;;;;26.13;11.32;;;;;;;;;;6110398;19;20006;-73
2022/12/25 01:28:47;;;;;;;29.73;12.52;;;;;;;;;;6108360;19;20353;-73
2022/12/25 01:30:52;;;;;;;28.65;12.18;;;;;;;;;;6110345;19;20060;-73
2022/12/25 01:32:59;;;;;;;27.00;12.23;;;;;;;;;;6109632;19;20077;-73
2022/12/25 01:35:04;;;;;;;27.85;12.15;;;;;;;;;;6109386;19;20010;-73
2022/12/25 01:37:09;;;;;;;29.13;12.20;;;;;;;;;;6109517;19;20007;-73
2022/12/25 01:39:13;;;;;;;28.65;12.55;;;;;;;;;;6110345;19;20086;-73
2022/12/25 01:41:20;;;;;;;25.33;12.23;;;;;;;;;;6107419;19;20027;-73
2022/12/25 01:43:26;;;;;;;31.08;12.98;;;;;;;;;;6106842;19;20019;-73
2022/12/25 01:45:40;;;;;;;26.15;12.18;;;;;;;;;;6109199;19;20115;-73
2022/12/25 01:47:45;;;;;;;28.42;12.40;;;;;;;;;;6109936;19;20352;-73
2022/12/25 01:49:52;;;;;;;29.70;12.60;;;;;;;;;;6102313;19;20011;-73
2022/12/25 01:51:59;;;;;;;26.23;11.05;;;;;;;;;;6107650;19;20011;-72
2022/12/25 01:54:07;;;;;;;27.48;12.80;;;;;;;;;;6104991;19;20006;-72
2022/12/25 01:56:12;;;;;;;32.78;13.48;;;;;;;;;;6107401;19;20014;-73
2022/12/25 01:58:18;;;;;;;27.60;12.15;;;;;;;;;;6107278;19;20417;-72
2022/12/25 02:00:23;;;;;;;31.88;13.98;;;;;;;;;;6105245;19;20490;-72
2022/12/25 02:02:29;;;;;;;27.35;13.23;;;;;;;;;;6106671;19;20028;-72
2022/12/25 02:04:40;;;;;;;29.77;15.98;;;;;;;;;;6105571;19;20007;-73
2022/12/25 02:06:48;;;;;;;28.98;14.45;;;;;;;;;;6106700;19;20010;-73
2022/12/25 02:08:53;;;;;;;28.45;13.05;;;;;;;;;;6106139;19;20002;-72
2022/12/25 02:10:58;;;;;;;30.08;15.50;;;;;;;;;;6106516;19;20006;-72
2022/12/25 02:13:03;;;;;;;35.95;13.85;;;;;;;;;;6104833;19;20603;-73
2022/12/25 02:15:11;;;;;;;27.60;13.55;;;;;;;;;;6105247;19;20034;-72
2022/12/25 02:17:22;;;;;;;32.85;14.88;;;;;;;;;;6107939;19;20023;-72
2022/12/25 02:19:38;;;;;;;30.48;14.20;;;;;;;;;;6107217;19;20011;-72
2022/12/25 02:21:59;;;;;;;36.63;13.57;;;;;;;;;;6106247;19;20017;-73
2022/12/25 02:24:15;;;;;;;30.02;13.07;;;;;;;;;;6104530;19;21476;-73
2022/12/25 02:26:28;;;;;;;33.47;15.02;;;;;;;;;;6107927;19;20010;-72
2022/12/25 02:28:40;;;;;;;30.77;14.05;;;;;;;;;;6105379;19;20038;-73
2022/12/25 02:30:56;;;;;;;27.63;14.00;;;;;;;;;;6107949;19;20046;-73
2022/12/25 02:35:26;;;;;;;32.40;14.98;;;;;;;;;;6108300;19;20038;-74
2022/12/25 02:37:35;;;;;;;38.60;15.98;;;;;;;;;;6108348;19;20017;-72
2022/12/25 02:39:56;;;;;;;35.83;15.57;;;;;;;;;;6108808;19;20009;-72
2022/12/25 02:42:04;;;;;;;42.00;16.63;;;;;;;;;;6103491;19;20010;-72
2022/12/25 03:07:35;;;;;;;39.00;18.23;;;;;;;;;;6104700;19;20014;-72
2022/12/25 03:12:01;;;;;;;35.75;16.38;;;;;;;;;;6102452;19;20078;-72
2022/12/25 03:18:44;;;;;;;42.22;19.23;;;;;;;;;;6103595;19;20088;-72
2022/12/25 03:27:41;;;;;;;37.50;17.17;;;;;;;;;;6103288;19;20011;-73
2022/12/25 03:32:13;;;;;;;37.05;16.30;;;;;;;;;;6102079;19;20078;-72
2022/12/25 03:36:54;;;;;;;34.03;16.55;;;;;;;;;;6106481;19;20538;-72
2022/12/25 04:37:13;;;;;;;29.83;12.32;;;;;;;;;;6104805;19;20006;-72
2022/12/25 04:39:18;;;;;;;30.23;13.75;;;;;;;;;;6101911;19;20046;-71
2022/12/25 04:41:23;;;;;;;26.60;10.82;;;;;;;;;;6102283;19;20011;-72
2022/12/25 04:43:28;;;;;;;25.15;12.13;;;;;;;;;;6102074;19;20010;-72
2022/12/25 04:45:33;;;;;;;23.63;10.70;;;;;;;;;;6102236;19;20014;-72
2022/12/25 04:47:38;;;;;;;30.00;13.65;;;;;;;;;;6103471;19;20011;-72
2022/12/25 04:49:43;;;;;;;29.23;12.27;;;;;;;;;;6101295;19;20664;-72
2022/12/25 04:51:48;;;;;;;24.42;11.57;;;;;;;;;;6105117;19;20011;-71
2022/12/25 04:53:55;;;;;;;33.42;12.68;;;;;;;;;;6102545;19;20014;-72
2022/12/25 04:56:00;;;;;;;25.05;13.07;;;;;;;;;;6108465;19;20035;-71
2022/12/25 04:58:05;;;;;;;23.88;11.18;;;;;;;;;;6107247;19;20035;-71
2022/12/25 05:00:11;;;;;;;26.55;12.50;;;;;;;;;;6108109;19;20010;-72
2022/12/25 05:02:16;;;;;;;23.88;11.20;;;;;;;;;;6108032;19;20021;-72
2022/12/25 05:04:21;;;;;;;28.05;11.90;;;;;;;;;;6108328;19;20467;-72
2022/12/25 05:06:25;;;;;;;22.42;11.07;;;;;;;;;;6106944;19;20003;-72
2022/12/25 05:08:31;;;;;;;26.45;11.60;;;;;;;;;;6106980;19;20023;-72
2022/12/25 05:10:41;;;;;;;25.90;11.40;;;;;;;;;;6107604;19;20343;-72
2022/12/25 05:12:46;;;;;;;24.20;10.05;;;;;;;;;;6107681;19;20020;-72
2022/12/25 05:14:50;;;;;;;21.63;10.45;;;;;;;;;;6107918;19;20015;-72
2022/12/25 05:16:55;;;;;;;27.73;10.75;;;;;;;;;;6107068;19;20015;-72
2022/12/25 05:19:00;;;;;;;26.25;10.80;;;;;;;;;;6107444;19;20086;-72
2022/12/25 05:21:06;;;;;;;22.98;9.45;;;;;;;;;;6108189;19;20022;-72
2022/12/25 05:23:12;;;;;;;24.27;10.05;;;;;;;;;;6106827;19;20046;-72
2022/12/25 05:25:17;;;;;;;19.33;9.07;;;;;;;;;;6109365;19;20038;-72
2022/12/25 05:27:24;;;;;;;20.33;9.50;;;;;;;;;;6107869;19;20015;-72
2022/12/25 05:29:31;;;;;;;23.88;9.45;;;;;;;;;;6106411;19;20014;-72
2022/12/25 05:31:36;;;;;;;19.05;9.38;;;;;;;;;;6107888;19;20395;-73
2022/12/25 05:33:40;;;;;;;17.70;8.52;;;;;;;;;;6106871;19;20018;-72
2022/12/25 05:35:45;;;;;;;20.77;8.00;;;;;;;;;;6106493;19;20609;-72
2022/12/25 05:37:50;;;;;;;22.30;8.38;;;;;;;;;;6103060;19;20022;-72
2022/12/25 05:39:55;;;;;;;19.75;8.57;;;;;;;;;;6107105;19;20018;-72
2022/12/25 05:41:59;;;;;;;17.67;8.73;;;;;;;;;;6106546;19;20021;-71
2022/12/25 05:44:07;;;;;;;19.90;9.57;;;;;;;;;;6107517;19;20546;-72
2022/12/25 05:46:12;;;;;;;18.95;8.90;;;;;;;;;;6105879;19;20030;-72
2022/12/25 05:48:17;;;;;;;20.38;8.85;;;;;;;;;;6107596;19;20505;-71
2022/12/25 05:50:22;;;;;;;20.13;9.27;;;;;;;;;;6108345;19;20021;-72
2022/12/25 05:52:27;;;;;;;19.42;9.48;;;;;;;;;;6107089;19;20014;-74
2022/12/25 05:54:33;;;;;;;17.30;8.13;;;;;;;;;;6109586;19;20086;-72
2022/12/25 05:56:39;;;;;;;20.33;8.63;;;;;;;;;;6108937;19;20438;-72
2022/12/25 05:58:41;;;;;;;16.65;9.02;;;;;;;;;;6106676;19;20027;-72
2022/12/25 06:00:48;;;;;;;22.48;9.38;;;;;;;;;;6106694;19;20031;-72
2022/12/25 06:02:53;;;;;;;17.08;9.20;;;;;;;;;;6106069;19;20047;-72
2022/12/25 06:04:58;;;;;;;27.48;9.50;;;;;;;;;;6105715;19;20018;-72
2022/12/25 06:07:03;;;;;;;19.42;9.70;;;;;;;;;;6107293;19;20384;-72
2022/12/25 06:09:05;;;;;;;21.27;9.65;;;;;;;;;;6107008;19;20010;-72
2022/12/25 06:11:10;;;;;;;22.20;10.40;;;;;;;;;;6106696;19;20474;-72
2022/12/25 06:13:15;;;;;;;21.15;9.15;;;;;;;;;;6104189;19;20019;-72
2022/12/25 06:15:20;;;;;;;20.05;9.88;;;;;;;;;;6106484;19;20021;-72
2022/12/25 06:17:31;;;;;;;24.23;9.68;;;;;;;;;;6108162;19;20010;-72
2022/12/25 06:19:36;;;;;;;22.75;10.18;;;;;;;;;;6106224;19;20010;-72
2022/12/25 06:21:41;;;;;;;18.77;8.40;;;;;;;;;;6106921;19;20006;-73
2022/12/25 06:23:46;;;;;;;18.55;8.65;;;;;;;;;;6105725;19;20013;-72
2022/12/25 06:25:51;;;;;;;17.85;8.45;;;;;;;;;;6103727;19;20022;-73
2022/12/25 06:27:56;;;;;;;17.27;8.45;;;;;;;;;;6105065;19;20035;-71
2022/12/25 06:30:00;;;;;;;18.23;8.38;;;;;;;;;;6107153;19;20007;-71
2022/12/25 06:32:06;;;;;;;14.15;7.20;;;;;;;;;;6106348;19;20040;-71
2022/12/25 06:34:15;;;;;;;14.75;7.18;;;;;;;;;;6106052;19;20006;-72
2022/12/25 06:36:21;;;;;;;13.80;7.60;;;;;;;;;;6107673;19;20028;-71
2022/12/25 06:38:26;;;;;;;18.33;7.25;;;;;;;;;;6105005;19;20014;-73
2022/12/25 06:40:30;;;;;;;16.35;7.68;;;;;;;;;;6106561;19;20017;-71
2022/12/25 06:42:35;;;;;;;14.52;7.05;;;;;;;;;;6106147;19;20028;-71
2022/12/25 06:44:40;;;;;;;13.82;6.65;;;;;;;;;;6104973;19;20542;-71
2022/12/25 06:46:45;;;;;;;17.42;7.80;;;;;;;;;;6104860;19;20050;-71
2022/12/25 06:48:50;;;;;;;15.65;7.55;;;;;;;;;;6104431;19;21010;-71
2022/12/25 06:50:57;;;;;;;12.20;6.45;;;;;;;;;;6106721;19;20541;-72
2022/12/25 06:53:02;;;;;;;14.05;6.95;;;;;;;;;;6106370;19;20023;-71
2022/12/25 06:55:07;;;;;;;12.88;6.30;;;;;;;;;;6107859;19;20014;-71
2022/12/25 06:57:12;;;;;;;14.25;6.65;;;;;;;;;;6108055;19;20007;-71
2022/12/25 06:59:17;;;;;;;16.33;6.97;;;;;;;;;;6103408;19;20002;-72
2022/12/25 07:01:23;;;;;;;16.90;8.25;;;;;;;;;;6103871;19;20006;-72
2022/12/25 07:03:30;;;;;;;14.63;7.50;;;;;;;;;;6104787;19;20018;-72
2022/12/25 07:05:35;;;;;;;18.35;6.82;;;;;;;;;;6103296;19;20007;-72
2022/12/25 07:07:42;;;;;;;15.20;7.43;;;;;;;;;;6103995;19;20017;-71
2022/12/25 07:09:47;;;;;;;14.77;7.47;;;;;;;;;;6102101;19;20317;-71
2022/12/25 07:11:52;;;;;;;14.38;8.00;;;;;;;;;;6104703;19;20388;-71
2022/12/25 07:13:56;;;;;;;14.30;6.50;;;;;;;;;;6102671;19;20015;-71
2022/12/25 07:16:02;;;;;;;18.42;7.35;;;;;;;;;;6104637;19;20445;-72
2022/12/25 07:18:07;;;;;;;14.68;7.22;;;;;;;;;;6105194;19;20464;-72
2022/12/25 07:20:12;;;;;;;15.15;6.55;;;;;;;;;;6106170;19;20082;-71
2022/12/25 07:22:18;;;;;;;13.07;6.88;;;;;;;;;;6104231;19;20480;-71
2022/12/25 07:24:26;;;;;;;16.98;7.15;;;;;;;;;;6106283;19;20483;-71
2022/12/25 07:26:30;;;;;;;12.50;6.22;;;;;;;;;;6105473;19;20857;-71
2022/12/25 07:28:35;;;;;;;16.45;6.60;;;;;;;;;;6105395;19;20049;-71
2022/12/25 07:30:40;;;;;;;12.02;6.60;;;;;;;;;;6105340;19;20031;-71
2022/12/25 07:32:45;;;;;;;13.00;6.53;;;;;;;;;;6103992;19;20032;-71
2022/12/25 07:34:53;;;;;;;12.27;5.70;;;;;;;;;;6104706;19;20002;-71
2022/12/25 07:36:58;;;;;;;13.65;6.65;;;;;;;;;;6105726;19;20484;-72
2022/12/25 07:39:03;;;;;;;11.80;5.72;;;;;;;;;;6104079;19;20007;-71
2022/12/25 07:41:12;;;;;;;11.52;6.15;;;;;;;;;;6104441;19;20017;-72
2022/12/25 07:43:17;;;;;;;12.68;6.03;;;;;;;;;;6105186;19;20015;-71
2022/12/25 07:45:22;;;;;;;14.63;6.40;;;;;;;;;;6105904;19;20602;-71
2022/12/25 07:47:27;;;;;;;11.35;5.95;;;;;;;;;;6105018;19;20089;-72
2022/12/25 07:49:31;;;;;;;15.45;6.65;;;;;;;;;;6107039;19;20058;-72
2022/12/25 07:51:36;;;;;;;12.05;6.18;;;;;;;;;;6107428;19;20360;-71
2022/12/25 07:53:41;;;;;;;12.10;6.70;;;;;;;;;;6104965;19;20070;-71
2022/12/25 07:55:46;;;;;;;14.80;6.85;;;;;;;;;;6106936;19;20046;-71
2022/12/25 07:57:53;;;;;;;12.40;6.75;;;;;;;;;;6105235;19;20014;-71
2022/12/25 07:59:59;;;;;;;14.32;6.75;;;;;;;;;;6104695;19;20006;-71
2022/12/25 08:02:04;;;;;;;12.68;6.03;;;;;;;;;;6103770;19;20101;-72
2022/12/25 08:04:10;;;;;;;14.02;6.10;;;;;;;;;;6105880;19;20021;-72
2022/12/25 08:06:15;;;;;;;10.88;5.35;;;;;;;;;;6105799;19;20703;-71
2022/12/25 08:08:20;;;;;;;14.20;5.57;;;;;;;;;;6106023;19;20030;-71
2022/12/25 08:10:25;;;;;;;13.65;5.50;;;;;;;;;;6106040;19;20074;-72
2022/12/25 08:12:29;;;;;;;13.68;6.00;;;;;;;;;;6105299;19;20007;-71
2022/12/25 08:14:37;;;;;;;12.10;6.10;;;;;;;;;;6106703;19;20561;-72
2022/12/25 08:16:41;;;;;;;13.70;5.53;;;;;;;;;;6104305;19;20026;-72
2022/12/25 08:18:46;;;;;;;13.63;6.72;;;;;;;;;;6104989;19;20014;-72
2022/12/25 08:20:51;;;;;;;15.15;6.93;;;;;;;;;;6104828;19;20082;-72
2022/12/25 08:22:56;;;;;;;13.35;6.22;;;;;;;;;;6103361;19;20018;-71
2022/12/25 08:25:01;;;;;;;14.52;6.88;;;;;;;;;;6105548;19;20138;-72
2022/12/25 08:27:06;;;;;;;17.40;6.95;;;;;;;;;;6111713;19;20018;-72
2022/12/25 08:29:10;;;;;;;13.32;5.72;;;;;;;;;;6111284;19;20074;-72
2022/12/25 08:31:20;;;;;;;11.68;6.10;;;;;;;;;;6110842;19;20053;-72
2022/12/25 08:33:25;;;;;;;13.32;6.10;;;;;;;;;;6112299;19;20054;-72
2022/12/25 08:35:30;;;;;;;11.55;5.68;;;;;;;;;;6112821;19;20070;-72
2022/12/25 08:37:34;;;;;;;12.40;5.80;;;;;;;;;;6111062;19;20013;-72
2022/12/25 08:39:39;;;;;;;12.57;5.80;;;;;;;;;;6111010;19;20114;-72
2022/12/25 08:41:44;;;;;;;13.45;5.63;;;;;;;;;;6109423;19;20014;-72
2022/12/25 08:43:48;;;;;;;15.82;5.53;;;;;;;;;;6109577;19;20036;-72
2022/12/25 08:45:53;;;;;;;11.55;6.13;;;;;;;;;;6110418;19;20018;-72
2022/12/25 08:48:00;;;;;;;12.60;6.07;;;;;;;;;;6109762;19;20493;-72
2022/12/25 08:50:06;;;;;;;11.75;5.20;;;;;;;;;;6109142;19;20010;-72
2022/12/25 08:52:10;;;;;;;12.68;6.07;;;;;;;;;;6106715;19;20007;-72
2022/12/25 08:54:18;;;;;;;11.90;6.43;;;;;;;;;;6110232;19;20018;-72
2022/12/25 08:56:22;;;;;;;11.10;5.78;;;;;;;;;;6111220;19;20014;-72
2022/12/25 08:58:27;;;;;;;12.13;6.47;;;;;;;;;;6110519;19;20018;-72
2022/12/25 09:00:33;;;;;;;13.52;6.40;;;;;;;;;;6109998;19;20018;-72
2022/12/25 09:02:38;;;;;;;15.80;7.55;;;;;;;;;;6110680;19;20519;-72
2022/12/25 09:04:46;;;;;;;17.73;8.85;;;;;;;;;;6111090;19;20014;-72
2022/12/25 09:06:51;;;;;;;18.55;8.90;;;;;;;;;;6110704;19;20016;-73
2022/12/25 09:08:56;;;;;;;17.50;8.32;;;;;;;;;;6110985;19;20022;-73
2022/12/25 09:11:03;;;;;;;20.58;9.05;;;;;;;;;;6111431;19;20058;-73
2022/12/25 09:13:08;;;;;;;15.95;8.45;;;;;;;;;;6110542;19;20468;-73
2022/12/25 09:15:13;;;;;;;18.83;10.00;;;;;;;;;;6108881;19;20090;-73
2022/12/25 09:17:18;;;;;;;22.23;9.95;;;;;;;;;;6110018;19;20018;-73
2022/12/25 09:19:23;;;;;;;19.60;9.63;;;;;;;;;;6108912;19;20015;-73
2022/12/25 09:21:30;;;;;;;20.88;9.15;;;;;;;;;;6109592;19;20082;-73
2022/12/25 09:23:35;;;;;;;19.33;9.32;;;;;;;;;;6109196;19;20010;-73
2022/12/25 09:25:40;;;;;;;17.00;8.82;;;;;;;;;;6111413;19;20362;-72
2022/12/25 09:27:45;;;;;;;18.52;9.25;;;;;;;;;;6110762;19;20364;-73
2022/12/25 09:29:49;;;;;;;23.08;9.27;;;;;;;;;;6111126;19;20018;-72
2022/12/25 09:31:54;;;;;;;20.35;9.05;;;;;;;;;;6101013;19;20019;-72
2022/12/25 09:33:59;;;;;;;23.25;9.65;;;;;;;;;;6107143;19;20035;-72
2022/12/25 09:36:06;;;;;;;19.55;8.63;;;;;;;;;;6109265;19;20019;-72
2022/12/25 09:38:13;;;;;;;15.90;8.05;;;;;;;;;;6103910;19;20383;-73
2022/12/25 09:40:19;;;;;;;19.73;8.85;;;;;;;;;;6108276;19;20025;-72
2022/12/25 09:42:27;;;;;;;18.80;7.78;;;;;;;;;;6105037;19;20017;-72
2022/12/25 09:44:35;;;;;;;20.27;8.85;;;;;;;;;;6105493;19;20013;-72
2022/12/25 09:46:42;;;;;;;15.50;8.02;;;;;;;;;;6106778;19;20524;-72
2022/12/25 09:48:53;;;;;;;15.93;6.63;;;;;;;;;;6107048;19;20605;-72
2022/12/25 09:51:01;;;;;;;18.98;8.63;;;;;;;;;;6106895;19;20007;-72
2022/12/25 09:53:09;;;;;;;14.95;6.93;;;;;;;;;;6105904;19;20010;-71
2022/12/25 09:55:18;;;;;;;16.70;8.75;;;;;;;;;;6107257;19;20510;-71
2022/12/25 09:57:27;;;;;;;17.17;7.32;;;;;;;;;;6106475;19;20023;-71
2022/12/25 09:59:32;;;;;;;18.17;7.85;;;;;;;;;;6107592;19;20542;-71
2022/12/25 10:01:43;;;;;;;19.05;8.68;;;;;;;;;;6105320;19;20085;-71
2022/12/25 10:04:00;;;;;;;18.45;8.60;;;;;;;;;;6106724;19;20479;-71
2022/12/25 10:06:17;;;;;;;18.13;8.18;;;;;;;;;;6105558;19;20090;-72
2022/12/25 10:08:34;;;;;;;18.23;7.28;;;;;;;;;;6100293;19;20006;-72
2022/12/25 10:10:52;;;;;;;15.98;8.25;;;;;;;;;;6108733;19;20027;-71
2022/12/25 10:13:05;;;;;;;18.17;8.55;;;;;;;;;;6105585;19;20022;-71
2022/12/25 10:15:20;;;;;;;15.07;7.47;;;;;;;;;;6106592;19;20330;-71
2022/12/25 10:17:35;;;;;;;16.13;8.43;;;;;;;;;;6105477;19;20117;-71
2022/12/25 10:19:45;;;;;;;15.32;7.70;;;;;;;;;;6107570;19;20074;-71
2022/12/25 10:21:51;;;;;;;20.60;8.15;;;;;;;;;;6108178;19;20014;-71
2022/12/25 10:24:04;;;;;;;16.92;8.13;;;;;;;;;;6107582;19;20359;-71
2022/12/25 10:26:14;;;;;;;;;;;;;;;;;;6105109;19;20015;-72
2022/12/25 10:28:27;;;;;;;15.07;7.20;;;;;;;;;;6106952;19;19919;-72
2022/12/25 10:30:34;;;;;;;16.42;7.47;;;;;;;;;;6108041;19;20078;-72
2022/12/25 10:32:38;;;;;;;16.75;7.47;;;;;;;;;;6101361;19;20049;-72
2022/12/25 10:34:44;;;;;;;21.77;8.70;;;;;;;;;;6106900;19;20345;-72
2022/12/25 10:36:49;;;;;;;17.45;7.90;;;;;;;;;;6104967;19;20043;-71
2022/12/25 10:38:54;;;;;;;18.50;8.68;;;;;;;;;;6104761;19;20339;-71
2022/12/25 10:41:09;;;;;;;18.70;8.02;;;;;;;;;;6105206;19;20744;-71
2022/12/25 10:43:19;;;;;;;19.27;8.65;;;;;;;;;;6107359;19;20615;-71
2022/12/25 10:45:26;;;;;;;20.90;8.35;;;;;;;;;;6105266;19;20184;-72
2022/12/25 10:47:33;;;;;;;19.83;8.35;;;;;;;;;;6100519;19;20835;-72
2022/12/25 10:49:40;;;;;;;18.77;7.85;;;;;;;;;;6104845;19;20038;-72
2022/12/25 10:51:45;;;;;;;19.73;7.90;;;;;;;;;;6108400;19;20015;-71
2022/12/25 10:53:49;;;;;;;21.02;10.07;;;;;;;;;;6106598;19;20007;-71
2022/12/25 10:55:59;;;;;;;19.90;8.85;;;;;;;;;;6108239;19;20515;-72
2022/12/25 10:58:07;;;;;;;21.25;8.70;;;;;;;;;;6104991;19;20010;-71
2022/12/25 11:00:22;;;;;;;18.15;8.88;;;;;;;;;;6108821;19;20329;-72
2022/12/25 11:02:31;;;;;;;22.75;8.70;;;;;;;;;;6107825;19;20007;-72
2022/12/25 11:04:37;;;;;;;17.73;9.30;;;;;;;;;;6107412;19;20023;-72
2022/12/25 11:06:42;;;;;;;20.55;9.18;;;;;;;;;;6109117;19;20113;-72
2022/12/25 11:08:53;;;;;;;21.20;9.48;;;;;;;;;;6108073;19;19999;-72
2022/12/25 11:11:04;;;;;;;22.52;9.35;;;;;;;;;;6108422;19;20483;-72
2022/12/25 11:13:23;;;;;;;19.60;9.03;;;;;;;;;;6106170;19;20012;-71
2022/12/25 11:15:35;;;;;;;19.25;9.00;;;;;;;;;;6105985;19;20702;-72
2022/12/25 11:17:50;;;;;;;22.30;9.38;;;;;;;;;;6106319;19;20367;-72
2022/12/25 11:19:56;;;;;;;17.70;8.73;;;;;;;;;;6108308;19;20108;-72
2022/12/25 11:22:02;;;;;;;23.00;9.98;;;;;;;;;;6108234;19;20369;-72
2022/12/25 11:24:17;;;;;;;21.75;9.90;;;;;;;;;;6105026;19;20451;-69
2022/12/25 11:26:22;;;;;;;17.67;9.18;;;;;;;;;;6108033;19;20027;-72
2022/12/25 11:28:27;;;;;;;17.75;8.80;;;;;;;;;;6106329;19;19999;-72
2022/12/25 11:30:33;;;;;;;19.75;8.80;;;;;;;;;;6107620;19;20010;-71
2022/12/25 11:32:45;;;;;;;17.70;9.95;;;;;;;;;;6106865;19;20328;-72
2022/12/25 11:34:51;;;;;;;19.75;9.50;;;;;;;;;;6107722;19;20613;-72
2022/12/25 11:36:55;;;;;;;18.63;8.48;;;;;;;;;;6107706;19;20411;-70
2022/12/25 11:39:03;;;;;;;20.70;10.10;;;;;;;;;;6106923;19;20011;-70
2022/12/25 11:41:08;;;;;;;21.65;10.05;;;;;;;;;;6105849;19;20375;-70
2022/12/25 11:43:17;;;;;;;18.80;9.75;;;;;;;;;;6106056;19;20011;-70
2022/12/25 11:45:26;;;;;;;21.00;9.38;;;;;;;;;;6107328;19;20027;-70
2022/12/25 11:47:36;;;;;;;19.17;9.85;;;;;;;;;;6107242;19;20462;-70
2022/12/25 11:49:48;;;;;;;19.23;9.73;;;;;;;;;;6106048;19;20007;-70
2022/12/25 11:51:57;;;;;;;19.40;9.55;;;;;;;;;;6107037;19;20015;-71
2022/12/25 11:54:05;;;;;;;19.45;9.73;;;;;;;;;;6104287;19;20014;-71
2022/12/25 11:56:11;;;;;;;20.98;10.50;;;;;;;;;;6105006;19;20483;-71
2022/12/25 11:58:19;;;;;;;20.55;11.35;;;;;;;;;;6107055;19;20015;-71
2022/12/25 12:00:24;;;;;;;21.95;10.32;;;;;;;;;;6105744;19;20017;-70
2022/12/25 12:02:36;;;;;;;20.92;9.93;;;;;;;;;;6104352;19;20003;-69
2022/12/25 12:04:46;;;;;;;24.13;10.48;;;;;;;;;;6106817;19;20455;-70
2022/12/25 12:06:55;;;;;;;22.42;10.18;;;;;;;;;;6106282;19;20081;-70
2022/12/25 12:09:07;;;;;;;24.38;10.65;;;;;;;;;;6105050;19;20010;-71
2022/12/25 12:11:18;;;;;;;20.70;10.18;;;;;;;;;;6106672;19;20030;-70
2022/12/25 12:13:33;;;;;;;22.65;11.73;;;;;;;;;;6104945;19;20010;-70
2022/12/25 12:15:43;;;;;;;20.08;10.55;;;;;;;;;;6107458;19;20046;-70
2022/12/25 12:17:47;;;;;;;21.48;10.13;;;;;;;;;;6105850;19;20015;-70
2022/12/25 12:19:55;;;;;;;19.52;10.05;;;;;;;;;;6104706;19;20010;-70
2022/12/25 12:22:01;;;;;;;20.52;10.05;;;;;;;;;;6104895;19;20030;-70
2022/12/25 12:24:08;;;;;;;17.92;9.75;;;;;;;;;;6105087;19;20070;-70
2022/12/25 12:26:19;;;;;;;19.20;9.88;;;;;;;;;;6106714;19;20518;-70
2022/12/25 12:28:26;;;;;;;19.42;10.20;;;;;;;;;;6104060;19;20024;-70
2022/12/25 12:30:35;;;;;;;22.75;11.05;;;;;;;;;;6083368;19;20226;-70
2022/12/25 12:32:43;;;;;;;24.45;11.55;;;;;;;;;;6101627;19;19999;-70
2022/12/25 12:34:49;;;;;;;19.95;10.93;;;;;;;;;;6106080;19;20011;-70
2022/12/25 12:37:01;;;;;;;24.38;11.20;;;;;;;;;;6105447;19;20086;-71
2022/12/25 12:39:06;;;;;;;21.17;11.43;;;;;;;;;;6107709;19;20093;-70
2022/12/25 12:41:13;;;;;;;21.77;11.77;;;;;;;;;;6106080;19;20014;-69
2022/12/25 12:43:29;;;;;;;25.65;11.05;;;;;;;;;;6106503;19;20027;-70
2022/12/25 12:45:36;;;;;;;24.88;11.10;;;;;;;;;;6106451;19;20035;-70
2022/12/25 12:47:45;;;;;;;21.80;11.32;;;;;;;;;;6104851;19;20011;-69
2022/12/25 12:49:59;;;;;;;19.70;9.98;;;;;;;;;;6107239;19;20267;-72
2022/12/25 12:52:09;;;;;;;24.63;11.70;;;;;;;;;;6106127;19;20035;-69
2022/12/25 12:54:21;;;;;;;26.73;12.77;;;;;;;;;;6103965;19;20110;-69
2022/12/25 12:56:26;;;;;;;36.90;18.30;;;;;;;;;;6105367;19;20030;-70
2022/12/25 12:58:34;;;;;;;25.63;13.48;;;;;;;;;;6105460;19;20006;-69
2022/12/25 13:00:48;;;;;;;26.40;12.27;;;;;;;;;;6105854;19;20038;-69
2022/12/25 13:03:13;;;;;;;34.30;17.05;;;;;;;;;;6105409;19;20014;-70
2022/12/25 13:05:22;;;;;;;39.03;20.67;;;;;;;;;;6105183;19;20566;-70
2022/12/25 13:07:45;;;;;;;23.75;12.93;;;;;;;;;;6104821;19;20013;-70
2022/12/25 13:10:02;;;;;;;21.33;11.50;;;;;;;;;;6103807;19;20038;-70
2022/12/25 13:12:08;;;;;;;21.60;11.15;;;;;;;;;;6104611;19;20021;-70
2022/12/25 13:14:18;;;;;;;27.55;15.70;;;;;;;;;;6111248;19;20086;-70
2022/12/25 13:16:27;;;;;;;25.80;13.02;;;;;;;;;;6109311;19;20027;-71
2022/12/25 13:18:32;;;;;;;29.35;14.63;;;;;;;;;;6109354;19;20010;-70
2022/12/25 13:20:46;;;;;;;22.25;11.68;;;;;;;;;;6109351;19;20017;-70
2022/12/25 13:22:53;;;;;;;27.70;13.90;;;;;;;;;;6110706;19;20020;-70
2022/12/25 13:24:59;;;;;;;27.50;12.30;;;;;;;;;;6106455;19;20486;-70
2022/12/25 13:27:22;;;;;;;27.00;14.25;;;;;;;;;;6109380;19;20013;-70
2022/12/25 13:29:34;;;;;;;23.98;12.88;;;;;;;;;;6108043;19;20086;-70
2022/12/25 13:31:39;;;;;;;21.92;11.45;;;;;;;;;;6110768;19;20021;-70
2022/12/25 13:33:47;;;;;;;27.67;13.30;;;;;;;;;;6110455;19;20011;-70
2022/12/25 13:35:52;;;;;;;26.88;13.57;;;;;;;;;;6109299;19;20372;-70
2022/12/25 13:38:00;;;;;;;27.55;14.02;;;;;;;;;;6111570;19;20011;-70
2022/12/25 13:40:08;;;;;;;30.40;14.00;;;;;;;;;;6110424;19;20014;-71
2022/12/25 13:42:14;;;;;;;24.58;12.73;;;;;;;;;;6108290;19;20435;-71
2022/12/25 13:44:22;;;;;;;25.00;12.88;;;;;;;;;;6111004;19;20074;-71
2022/12/25 13:46:28;;;;;;;26.90;12.23;;;;;;;;;;6108172;19;20013;-72
2022/12/25 13:48:34;;;;;;;27.27;12.93;;;;;;;;;;6109851;19;20442;-71
2022/12/25 13:50:43;;;;;;;28.50;13.95;;;;;;;;;;6110901;19;20016;-71
2022/12/25 13:52:48;;;;;;;27.13;12.85;;;;;;;;;;6107274;19;20489;-70
2022/12/25 13:55:01;;;;;;;26.60;14.48;;;;;;;;;;6110983;19;20090;-70
2022/12/25 13:57:09;;;;;;;27.02;14.60;;;;;;;;;;6110675;19;20082;-71
2022/12/25 13:59:16;;;;;;;29.17;13.25;;;;;;;;;;6110374;19;20057;-71
2022/12/25 14:01:21;;;;;;;25.67;13.40;;;;;;;;;;6109543;19;20661;-70
2022/12/25 14:03:35;;;;;;;30.60;15.73;;;;;;;;;;6108184;19;20022;-70
2022/12/25 14:05:40;;;;;;;32.25;15.90;;;;;;;;;;6110062;19;20562;-70
2022/12/25 14:07:52;;;;;;;26.40;14.40;;;;;;;;;;6108934;19;20499;-70
2022/12/25 14:10:02;;;;;;;28.52;13.85;;;;;;;;;;6108682;19;20652;-70